createdAt,value
2022-12-18T00:01:59.796Z,-3.70
2022-12-18T00:04:27.913Z,-3.80
2022-12-18T00:07:07.315Z,-3.90
2022-12-18T00:09:54.016Z,-3.90
2022-12-18T00:12:30.329Z,-3.90
2022-12-18T00:15:03.351Z,-4.00
2022-12-18T00:17:30.011Z,-4.00
2022-12-18T00:19:57.757Z,-4.00
2022-12-18T00:22:24.366Z,-4.00
2022-12-18T00:25:00.378Z,-4.00
2022-12-18T00:27:35.522Z,-4.10
2022-12-18T00:30:14.486Z,-4.00
2022-12-18T00:32:53.679Z,-4.00
2022-12-18T00:38:01.412Z,-4.10
2022-12-18T00:40:32.660Z,-4.20
2022-12-18T00:43:05.216Z,-4.20
2022-12-18T00:48:13.127Z,-4.20
2022-12-18T00:50:52.445Z,-4.10
2022-12-18T00:55:59.675Z,-4.20
2022-12-18T00:58:36.727Z,-4.20
2022-12-18T01:01:12.894Z,-4.20
2022-12-18T01:03:39.874Z,-4.30
2022-12-18T01:06:13.128Z,-4.30
2022-12-18T01:08:45.851Z,-4.30
2022-12-18T01:14:12.133Z,-4.40
2022-12-18T01:16:51.023Z,-4.50
2022-12-18T01:19:38.179Z,-4.50
2022-12-18T01:22:04.947Z,-4.50
2022-12-18T01:24:32.715Z,-4.40
2022-12-18T01:27:08.745Z,-4.40
2022-12-18T01:29:35.506Z,-4.40
2022-12-18T01:32:05.372Z,-4.40
2022-12-18T01:34:32.191Z,-4.40
2022-12-18T01:37:05.374Z,-4.40
2022-12-18T01:39:41.242Z,-4.50
2022-12-18T01:42:22.726Z,-4.60
2022-12-18T01:45:09.919Z,-4.60
2022-12-18T01:47:56.833Z,-4.60
2022-12-18T01:50:40.931Z,-4.60
2022-12-18T01:53:13.647Z,-4.60
2022-12-18T01:55:52.412Z,-4.60
2022-12-18T01:58:58.199Z,-4.60
2022-12-18T02:04:27.647Z,-4.60
2022-12-18T02:07:18.216Z,-4.50
2022-12-18T02:10:04.631Z,-4.50
2022-12-18T02:12:53.664Z,-4.50
2022-12-18T02:15:25.351Z,-4.50
2022-12-18T02:18:18.578Z,-4.60
2022-12-18T02:20:48.374Z,-4.70
2022-12-18T02:26:50.962Z,-4.60
2022-12-18T02:29:29.548Z,-4.60
2022-12-18T02:32:05.404Z,-4.60
2022-12-18T02:37:35.272Z,-4.50
2022-12-18T02:40:04.254Z,-4.50
2022-12-18T02:42:36.755Z,-4.50
2022-12-18T02:45:03.744Z,-4.50
2022-12-18T02:47:34.780Z,-4.50
2022-12-18T02:53:43.472Z,-4.60
2022-12-18T02:56:39.714Z,-4.60
2022-12-18T02:59:15.922Z,-4.70
2022-12-18T03:01:55.358Z,-4.80
2022-12-18T03:04:30.104Z,-4.80
2022-12-18T03:06:59.379Z,-4.90
2022-12-18T03:09:32.927Z,-4.90
2022-12-18T03:12:06.124Z,-4.90
2022-12-18T03:14:37.759Z,-5.00
2022-12-18T03:17:07.987Z,-5.00
2022-12-18T03:19:42.586Z,-5.00
2022-12-18T03:22:23.992Z,-5.00
2022-12-18T03:25:04.042Z,-5.00
2022-12-18T03:27:52.345Z,-5.00
2022-12-18T03:30:19.517Z,-5.00
2022-12-18T03:35:39.866Z,-5.00
2022-12-18T03:38:11.577Z,-5.00
2022-12-18T03:44:15.484Z,-5.10
2022-12-18T03:47:27.457Z,-5.10
2022-12-18T03:50:02.657Z,-5.10
2022-12-18T03:52:55.051Z,-5.10
2022-12-18T03:55:35.526Z,-5.20
2022-12-18T04:01:01.172Z,-5.20
2022-12-18T04:03:31.558Z,-5.20
2022-12-18T04:06:00.530Z,-5.20
2022-12-18T04:08:28.094Z,-5.30
2022-12-18T04:10:54.741Z,-5.30
2022-12-18T04:13:28.502Z,-5.30
2022-12-18T04:15:55.171Z,-5.30
2022-12-18T04:18:21.955Z,-5.30
2022-12-18T04:20:48.553Z,-5.30
2022-12-18T04:23:15.195Z,-5.30
2022-12-18T04:25:50.693Z,-5.40
2022-12-18T04:28:26.465Z,-5.30
2022-12-18T04:30:53.137Z,-5.40
2022-12-18T04:33:23.116Z,-5.40
2022-12-18T04:35:49.681Z,-5.40
2022-12-18T04:38:26.545Z,-5.40
2022-12-18T04:41:05.367Z,-5.40
2022-12-18T04:43:32.036Z,-5.40
2022-12-18T04:46:16.024Z,-5.50
2022-12-18T04:48:54.972Z,-5.50
2022-12-18T04:51:26.332Z,-5.50
2022-12-18T04:54:02.457Z,-5.50
2022-12-18T04:56:29.078Z,-5.50
2022-12-18T04:59:11.128Z,-5.60
2022-12-18T05:01:37.889Z,-5.60
2022-12-18T05:04:09.816Z,-5.60
2022-12-18T05:06:36.504Z,-5.60
2022-12-18T05:09:09.269Z,-5.60
2022-12-18T05:11:36.359Z,-5.60
2022-12-18T05:14:03.089Z,-5.60
2022-12-18T05:16:30.052Z,-5.70
2022-12-18T05:18:56.696Z,-5.70
2022-12-18T05:21:23.422Z,-5.70
2022-12-18T05:23:54.898Z,-5.70
2022-12-18T05:26:31.179Z,-5.70
2022-12-18T05:28:57.888Z,-5.70
2022-12-18T05:31:39.622Z,-5.70
2022-12-18T05:34:06.843Z,-5.70
2022-12-18T05:36:42.758Z,-5.70
2022-12-18T05:39:38.608Z,-5.70
2022-12-18T05:42:13.188Z,-5.70
2022-12-18T05:47:20.323Z,-5.70
2022-12-18T05:49:53.231Z,-5.70
2022-12-18T05:52:19.834Z,-5.70
2022-12-18T05:54:53.731Z,-5.80
2022-12-18T05:57:20.387Z,-5.80
2022-12-18T05:59:52.958Z,-5.80
2022-12-18T06:02:19.698Z,-5.80
2022-12-18T06:04:46.425Z,-5.80
2022-12-18T06:07:19.132Z,-5.70
2022-12-18T06:09:45.806Z,-5.80
2022-12-18T06:12:12.563Z,-5.80
2022-12-18T06:14:46.848Z,-5.80
2022-12-18T06:17:13.615Z,-5.80
2022-12-18T06:19:58.474Z,-5.80
2022-12-18T06:22:40.118Z,-5.80
2022-12-18T06:25:07.399Z,-5.90
2022-12-18T06:27:35.756Z,-5.80
2022-12-18T06:30:03.021Z,-5.80
2022-12-18T06:32:44.724Z,-5.90
2022-12-18T06:35:14.517Z,-5.90
2022-12-18T06:37:41.150Z,-5.90
2022-12-18T06:40:20.307Z,-5.90
2022-12-18T06:42:46.881Z,-5.90
2022-12-18T06:45:13.463Z,-5.90
2022-12-18T06:47:40.055Z,-5.90
2022-12-18T06:50:07.322Z,-5.90
2022-12-18T06:52:34.387Z,-5.80
2022-12-18T06:57:42.111Z,-5.90
2022-12-18T07:00:09.266Z,-5.90
2022-12-18T07:02:36.488Z,-5.90
2022-12-18T07:05:08.936Z,-5.90
2022-12-18T07:07:37.297Z,-5.90
2022-12-18T07:10:04.690Z,-5.90
2022-12-18T07:15:12.169Z,-5.90
2022-12-18T07:17:38.738Z,-5.90
2022-12-18T07:20:05.759Z,-5.90
2022-12-18T07:22:34.972Z,-6.00
2022-12-18T07:25:01.656Z,-6.00
2022-12-18T07:27:28.330Z,-6.00
2022-12-18T07:29:54.882Z,-5.90
2022-12-18T07:35:12.109Z,-5.90
2022-12-18T07:37:51.931Z,-5.90
2022-12-18T07:40:18.513Z,-5.90
2022-12-18T07:42:45.243Z,-5.90
2022-12-18T07:45:23.331Z,-5.90
2022-12-18T07:47:49.895Z,-5.90
2022-12-18T07:52:57.287Z,-5.90
2022-12-18T07:55:27.314Z,-5.90
2022-12-18T07:57:59.218Z,-5.90
2022-12-18T08:00:27.827Z,-5.90
2022-12-18T08:03:00.493Z,-5.90
2022-12-18T08:05:27.956Z,-5.80
2022-12-18T08:07:55.026Z,-5.80
2022-12-18T08:10:22.388Z,-5.80
2022-12-18T08:12:52.565Z,-5.70
2022-12-18T08:15:19.555Z,-5.70
2022-12-18T08:17:46.157Z,-5.70
2022-12-18T08:20:13.162Z,-5.70
2022-12-18T08:22:39.892Z,-5.60
2022-12-18T08:25:07.124Z,-5.60
2022-12-18T08:27:33.737Z,-5.60
2022-12-18T08:30:00.942Z,-5.60
2022-12-18T08:32:28.714Z,-5.50
2022-12-18T08:34:55.455Z,-5.50
2022-12-18T08:37:22.145Z,-5.50
2022-12-18T08:39:48.788Z,-5.50
2022-12-18T08:42:15.417Z,-5.40
2022-12-18T08:44:42.063Z,-5.40
2022-12-18T08:47:09.140Z,-5.30
2022-12-18T08:49:36.482Z,-5.20
2022-12-18T08:52:15.382Z,-5.20
2022-12-18T08:54:42.154Z,-5.20
2022-12-18T08:57:08.914Z,-5.10
2022-12-18T08:59:35.855Z,-5.10
2022-12-18T09:02:05.129Z,-5.00
2022-12-18T09:07:12.426Z,-4.90
2022-12-18T09:09:39.172Z,-4.90
2022-12-18T09:12:06.026Z,-4.80
2022-12-18T09:14:52.922Z,-4.80
2022-12-18T09:17:19.568Z,-4.80
2022-12-18T09:19:46.423Z,-4.70
2022-12-18T09:22:13.104Z,-4.70
2022-12-18T09:24:43.078Z,-4.60
2022-12-18T09:27:11.791Z,-4.60
2022-12-18T09:29:38.385Z,-4.60
2022-12-18T09:32:05.332Z,-4.60
2022-12-18T09:46:06.458Z,-4.30
2022-12-18T09:48:45.339Z,-4.40
2022-12-18T09:51:29.935Z,-4.30
2022-12-18T10:00:42.484Z,-4.20
2022-12-18T10:03:25.119Z,-4.10
2022-12-18T10:37:31.634Z,-3.80
2022-12-18T10:40:22.792Z,-3.70
2022-12-18T10:43:27.188Z,-3.70
2022-12-18T10:53:08.447Z,-3.60
2022-12-18T10:59:26.805Z,-3.50
2022-12-18T11:09:43.068Z,-3.30
2022-12-18T11:27:35.276Z,-3.10
2022-12-18T11:33:22.668Z,-3.00
2022-12-18T11:35:56.466Z,-2.90
2022-12-18T11:38:45.325Z,-2.90
2022-12-18T11:41:23.915Z,-2.90
2022-12-18T11:43:57.126Z,-2.80
2022-12-18T11:49:51.228Z,-2.70
2022-12-18T11:55:48.999Z,-2.70
2022-12-18T11:58:53.917Z,-2.70
2022-12-18T12:02:13.797Z,-2.60
2022-12-18T12:05:27.701Z,-2.60
2022-12-18T12:08:17.550Z,-2.60
2022-12-18T12:11:26.104Z,-2.60
2022-12-18T12:18:11.090Z,-2.50
2022-12-18T12:28:00.256Z,-2.30
2022-12-18T12:34:26.000Z,-2.30
2022-12-18T12:41:07.291Z,-2.20
2022-12-18T12:46:27.685Z,-2.20
2022-12-18T12:53:26.143Z,-2.20
2022-12-18T12:55:43.904Z,-2.10
2022-12-18T13:04:29.998Z,-2.10
2022-12-18T13:07:24.679Z,-2.00
2022-12-18T13:13:13.538Z,-2.00
2022-12-18T13:16:06.893Z,-2.00
2022-12-18T13:18:52.664Z,-2.00
2022-12-18T13:21:33.840Z,-2.00
2022-12-18T13:26:37.442Z,-2.00
2022-12-18T13:32:20.980Z,-1.90
2022-12-18T13:35:35.717Z,-1.90
2022-12-18T13:38:31.877Z,-1.90
2022-12-18T13:41:25.072Z,-1.90
2022-12-18T13:47:36.026Z,-1.90
2022-12-18T13:50:32.457Z,-1.90
2022-12-18T13:53:40.329Z,-1.90
2022-12-18T13:56:31.649Z,-1.90
2022-12-18T13:59:25.069Z,-1.90
2022-12-18T14:02:15.617Z,-1.80
2022-12-18T14:07:49.396Z,-1.80
2022-12-18T14:13:06.658Z,-1.70
2022-12-18T14:15:51.229Z,-1.70
2022-12-18T14:18:54.287Z,-1.70
2022-12-18T14:21:31.133Z,-1.70
2022-12-18T14:24:12.725Z,-1.70
2022-12-18T14:30:32.467Z,-1.70
2022-12-18T14:33:26.182Z,-1.60
2022-12-18T14:36:20.386Z,-1.60
2022-12-18T14:39:04.638Z,-1.60
2022-12-18T14:41:31.352Z,-1.60
2022-12-18T14:44:13.911Z,-1.60
2022-12-18T14:49:33.882Z,-1.60
2022-12-18T14:52:44.744Z,-1.50
2022-12-18T14:55:35.641Z,-1.50
2022-12-18T14:58:03.057Z,-1.50
2022-12-18T15:00:47.560Z,-1.60
2022-12-18T15:03:55.931Z,-1.50
2022-12-18T15:06:44.576Z,-1.50
2022-12-18T15:09:36.953Z,-1.50
2022-12-18T15:12:48.532Z,-1.60
2022-12-18T15:15:46.167Z,-1.50
2022-12-18T15:18:49.227Z,-1.50
2022-12-18T15:21:36.842Z,-1.50
2022-12-18T15:24:03.582Z,-1.50
2022-12-18T15:26:51.215Z,-1.60
2022-12-18T15:29:38.899Z,-1.60
2022-12-18T15:35:26.216Z,-1.50
2022-12-18T15:38:08.490Z,-1.50
2022-12-18T15:40:35.200Z,-1.50
2022-12-18T15:43:17.198Z,-1.50
2022-12-18T15:45:43.924Z,-1.50
2022-12-18T15:48:22.088Z,-1.50
2022-12-18T15:51:10.843Z,-1.50
2022-12-18T15:53:37.715Z,-1.50
2022-12-18T15:56:18.395Z,-1.50
2022-12-18T15:58:54.657Z,-1.50
2022-12-18T16:01:43.210Z,-1.40
2022-12-18T16:04:30.693Z,-1.50
2022-12-18T16:07:14.835Z,-1.50
2022-12-18T16:09:54.510Z,-1.40
2022-12-18T16:12:51.639Z,-1.40
2022-12-18T16:15:24.506Z,-1.40
2022-12-18T16:18:13.012Z,-1.40
2022-12-18T16:20:51.406Z,-1.40
2022-12-18T16:23:40.333Z,-1.40
2022-12-18T16:26:18.869Z,-1.40
2022-12-18T16:31:37.011Z,-1.40
2022-12-18T16:34:23.641Z,-1.30
2022-12-18T16:37:08.017Z,-1.30
2022-12-18T16:39:35.943Z,-1.30
2022-12-18T16:42:20.820Z,-1.30
2022-12-18T16:45:09.854Z,-1.30
2022-12-18T16:47:59.481Z,-1.30
2022-12-18T16:50:24.299Z,-1.20
2022-12-18T16:52:59.300Z,-1.30
2022-12-18T16:55:27.172Z,-1.30
2022-12-18T16:57:57.796Z,-1.20
2022-12-18T17:00:24.584Z,-1.20
2022-12-18T17:02:51.476Z,-1.20
2022-12-18T17:05:30.526Z,-1.20
2022-12-18T17:07:57.284Z,-1.20
2022-12-18T17:10:38.604Z,-1.20
2022-12-18T17:13:05.303Z,-1.20
2022-12-18T17:15:42.383Z,-1.10
2022-12-18T17:18:09.120Z,-1.10
2022-12-18T17:23:16.307Z,-1.10
2022-12-18T17:25:42.971Z,-1.10
2022-12-18T17:28:26.630Z,-1.10
2022-12-18T17:30:54.384Z,-1.10
2022-12-18T17:33:36.595Z,-1.10
2022-12-18T17:36:03.486Z,-1.00
2022-12-18T17:38:30.344Z,-1.00
2022-12-18T17:41:12.641Z,-1.00
2022-12-18T17:43:39.667Z,-1.00
2022-12-18T17:46:19.080Z,-1.00
2022-12-18T17:48:45.933Z,-1.00
2022-12-18T17:54:04.883Z,-1.00
2022-12-18T17:56:49.691Z,-0.90
2022-12-18T17:59:16.620Z,-0.90
2022-12-18T18:02:00.324Z,-0.90
2022-12-18T18:04:28.161Z,-0.80
2022-12-18T18:07:09.033Z,-0.80
2022-12-18T18:09:35.789Z,-0.80
2022-12-18T18:12:02.444Z,-0.80
2022-12-18T18:14:35.276Z,-0.80
2022-12-18T18:17:04.742Z,-0.80
2022-12-18T18:19:41.504Z,-0.70
2022-12-18T18:22:10.083Z,-0.70
2022-12-18T18:24:37.995Z,-0.70
2022-12-18T18:27:18.482Z,-0.70
2022-12-18T18:29:45.387Z,-0.70
2022-12-18T18:32:12.179Z,-0.70
2022-12-18T18:35:02.969Z,-0.70
2022-12-18T18:40:31.432Z,-0.60
2022-12-18T18:42:58.143Z,-0.60
2022-12-18T18:45:24.889Z,-0.60
2022-12-18T18:50:32.335Z,-0.50
2022-12-18T18:52:58.987Z,-0.50
2022-12-18T18:55:43.686Z,-0.50
2022-12-18T18:58:10.435Z,-0.40
2022-12-18T19:01:01.100Z,-0.40
2022-12-18T19:03:44.039Z,-0.40
2022-12-18T19:06:23.075Z,-0.30
2022-12-18T19:09:05.506Z,-0.30
2022-12-18T19:14:24.345Z,-0.20
2022-12-18T19:16:59.781Z,-0.20
2022-12-18T19:19:45.801Z,-0.20
2022-12-18T19:22:25.751Z,-0.20
2022-12-18T19:25:07.572Z,-0.30
2022-12-18T19:28:27.247Z,-0.30
2022-12-18T19:31:06.827Z,-0.30
2022-12-18T19:33:48.052Z,-0.30
2022-12-18T19:36:33.041Z,-0.30
2022-12-18T19:39:01.767Z,-0.40
2022-12-18T19:41:37.881Z,-0.40
2022-12-18T19:46:45.903Z,-0.40
2022-12-18T19:49:28.107Z,-0.40
2022-12-18T19:52:08.012Z,-0.40
2022-12-18T19:54:34.962Z,-0.40
2022-12-18T19:57:11.568Z,-0.40
2022-12-18T19:59:59.876Z,-0.50
2022-12-18T20:02:26.652Z,-0.50
2022-12-18T20:05:10.613Z,-0.40
2022-12-18T20:07:53.499Z,-0.40
2022-12-18T20:10:35.483Z,-0.40
2022-12-18T20:13:05.027Z,-0.40
2022-12-18T20:18:12.558Z,-0.40
2022-12-18T20:21:01.049Z,-0.40
2022-12-18T20:23:54.293Z,-0.40
2022-12-18T20:26:38.922Z,-0.40
2022-12-18T20:29:27.290Z,-0.40
2022-12-18T20:32:15.186Z,-0.40
2022-12-18T20:34:57.395Z,-0.40
2022-12-18T20:37:37.847Z,-0.40
2022-12-18T20:40:18.006Z,-0.40
2022-12-18T20:42:54.067Z,-0.40
2022-12-18T20:45:36.679Z,-0.40
2022-12-18T20:50:48.495Z,-0.40
2022-12-18T22:04:21.677Z,-0.20
2022-12-18T22:06:49.827Z,-0.10
2022-12-18T22:11:00.613Z,-0.10
2022-12-18T22:13:03.819Z,-0.10
2022-12-18T22:15:49.029Z,-0.10
